createdAt,value
2023-03-22T00:00:09.145Z,93.48
2023-03-22T00:01:49.603Z,93.47
2023-03-22T00:03:30.064Z,93.5
2023-03-22T00:05:10.406Z,93.47
2023-03-22T00:06:50.837Z,93.44
2023-03-22T00:08:31.230Z,93.44
2023-03-22T00:10:11.736Z,93.67
2023-03-22T00:11:52.127Z,93.76
2023-03-22T00:13:33.897Z,93.66
2023-03-22T00:15:12.856Z,93.7
2023-03-22T00:16:53.270Z,93.57
2023-03-22T00:18:33.615Z,93.6
2023-03-22T00:20:14.070Z,93.66
2023-03-22T00:21:54.487Z,93.65
2023-03-22T00:23:34.907Z,93.52
2023-03-22T00:25:15.433Z,93.47
2023-03-22T00:26:55.706Z,93.42
2023-03-22T00:28:36.164Z,93.47
2023-03-22T00:30:16.608Z,93.43
2023-03-22T00:31:56.921Z,93.44
2023-03-22T00:33:37.418Z,93.39
2023-03-22T00:35:17.844Z,93.25
2023-03-22T00:36:58.188Z,93.27
2023-03-22T00:38:43.429Z,93.26
2023-03-22T00:40:18.966Z,93.33
2023-03-22T00:41:59.335Z,93.34
2023-03-22T00:43:39.728Z,93.38
2023-03-22T00:45:20.069Z,93.3
2023-03-22T00:47:00.446Z,93.39
2023-03-22T00:48:40.895Z,93.4
2023-03-22T00:50:21.291Z,93.6
2023-03-22T00:52:01.721Z,93.71
2023-03-22T00:53:43.515Z,93.54
2023-03-22T00:55:22.485Z,93.45
2023-03-22T00:57:03.014Z,93.42
2023-03-22T00:58:43.433Z,93.69
2023-03-22T01:00:23.839Z,93.79
2023-03-22T01:02:04.275Z,93.8
2023-03-22T01:03:44.816Z,93.81
2023-03-22T01:05:25.133Z,93.8
2023-03-22T01:07:05.488Z,93.54
2023-03-22T01:08:45.967Z,93.55
2023-03-22T01:10:26.278Z,93.52
2023-03-22T01:12:06.640Z,93.52
2023-03-22T01:13:47.008Z,93.5
2023-03-22T01:15:27.382Z,93.48
2023-03-22T01:17:07.778Z,93.51
2023-03-22T01:18:48.244Z,93.48
2023-03-22T01:20:28.706Z,93.47
2023-03-22T01:22:09.107Z,93.47
2023-03-22T01:23:49.493Z,93.49
2023-03-22T01:25:29.936Z,93.22
2023-03-22T01:27:10.352Z,93.21
2023-03-22T01:28:50.691Z,93.17
2023-03-22T01:30:31.183Z,93.21
2023-03-22T01:32:11.560Z,93.31
2023-03-22T01:33:51.934Z,93.4
2023-03-22T01:35:32.435Z,93.59
2023-03-22T01:37:12.665Z,93.56
2023-03-22T01:38:52.995Z,93.55
2023-03-22T01:40:33.351Z,93.67
2023-03-22T01:42:13.764Z,93.63
2023-03-22T01:43:54.075Z,93.73
2023-03-22T01:45:34.472Z,93.84
2023-03-22T01:47:14.931Z,93.92
2023-03-22T01:48:55.325Z,93.94
2023-03-22T01:50:35.708Z,94.06
2023-03-22T01:52:16.148Z,93.67
2023-03-22T01:53:56.606Z,93.53
2023-03-22T01:55:37.068Z,93.66
2023-03-22T01:57:17.443Z,93.85
2023-03-22T01:58:57.852Z,93.63
2023-03-22T02:00:38.560Z,93.52
2023-03-22T02:02:18.786Z,93.46
2023-03-22T02:03:59.122Z,93.33
2023-03-22T02:05:39.533Z,93.3
2023-03-22T02:07:19.945Z,93.39
2023-03-22T02:09:00.240Z,93.44
2023-03-22T02:10:40.812Z,93.41
2023-03-22T02:12:21.047Z,93.25
2023-03-22T02:14:01.503Z,93.31
2023-03-22T02:15:41.888Z,93.42
2023-03-22T02:17:22.290Z,93.53
2023-03-22T02:19:02.761Z,93.48
2023-03-22T02:20:43.104Z,93.39
2023-03-22T02:22:23.503Z,93.31
2023-03-22T02:24:03.909Z,93.4
2023-03-22T02:25:44.309Z,93.42
2023-03-22T02:27:24.704Z,93.36
2023-03-22T02:29:05.120Z,93.21
2023-03-22T02:30:45.561Z,93.23
2023-03-22T02:32:25.978Z,93.31
2023-03-22T02:34:06.399Z,93.37
2023-03-22T02:35:46.833Z,93.39
2023-03-22T02:37:27.169Z,93.45
2023-03-22T02:39:07.563Z,93.35
2023-03-22T02:40:47.951Z,93.39
2023-03-22T02:42:28.377Z,93.37
2023-03-22T02:44:08.772Z,93.42
2023-03-22T02:45:49.210Z,93.43
2023-03-22T02:47:29.650Z,93.26
2023-03-22T02:49:10.038Z,93.21
2023-03-22T02:50:50.486Z,93.24
2023-03-22T02:52:30.774Z,93.22
2023-03-22T02:54:11.149Z,93.09
2023-03-22T02:55:51.654Z,93.01
2023-03-22T02:57:32.033Z,93.01
2023-03-22T02:59:12.453Z,92.94
2023-03-22T03:00:52.824Z,92.92
2023-03-22T03:02:33.236Z,92.85
2023-03-22T03:04:13.634Z,92.83
2023-03-22T03:05:54.056Z,92.78
2023-03-22T03:07:34.528Z,92.74
2023-03-22T03:09:14.925Z,92.67
2023-03-22T03:10:55.229Z,92.58
2023-03-22T03:12:35.603Z,92.59
2023-03-22T03:14:16.055Z,92.57
2023-03-22T03:15:56.441Z,92.62
2023-03-22T03:17:36.841Z,92.6
2023-03-22T03:19:17.284Z,92.66
2023-03-22T03:20:57.699Z,92.63
2023-03-22T03:22:38.147Z,92.58
2023-03-22T03:24:18.486Z,92.44
2023-03-22T03:25:58.865Z,92.35
2023-03-22T03:27:39.227Z,92.3
2023-03-22T03:29:19.577Z,92.29
2023-03-22T03:30:59.869Z,92.22
2023-03-22T03:32:40.303Z,92.24
2023-03-22T03:34:20.701Z,92.22
2023-03-22T03:36:01.135Z,92.19
2023-03-22T03:37:41.515Z,92.15
2023-03-22T03:39:21.840Z,92.13
2023-03-22T03:41:02.290Z,92.21
2023-03-22T03:42:42.625Z,92.23
2023-03-22T03:44:23.096Z,92.32
2023-03-22T03:46:03.786Z,92.28
2023-03-22T03:47:44.065Z,92.2
2023-03-22T03:49:24.467Z,92.1
2023-03-22T03:51:04.899Z,92.07
2023-03-22T03:52:45.334Z,92.03
2023-03-22T03:54:25.721Z,91.99
2023-03-22T03:56:06.112Z,91.97
2023-03-22T03:57:46.487Z,92.03
2023-03-22T03:59:26.904Z,92.02
2023-03-22T04:01:07.409Z,92.1
2023-03-22T04:02:47.791Z,92.08
2023-03-22T04:04:28.267Z,92.08
2023-03-22T04:06:08.544Z,92
2023-03-22T04:07:48.931Z,91.89
2023-03-22T04:09:29.357Z,91.88
2023-03-22T04:11:09.802Z,91.87
2023-03-22T04:12:50.187Z,91.89
2023-03-22T04:14:30.568Z,91.87
2023-03-22T04:16:11.036Z,91.87
2023-03-22T04:17:51.502Z,91.83
2023-03-22T04:19:31.858Z,91.82
2023-03-22T04:21:12.305Z,91.76
2023-03-22T04:22:52.783Z,91.75
2023-03-22T04:24:33.058Z,91.81
2023-03-22T04:26:13.500Z,91.65
2023-03-22T04:27:53.928Z,91.57
2023-03-22T04:29:34.266Z,91.62
2023-03-22T04:31:14.645Z,91.59
2023-03-22T04:32:55.003Z,91.6
2023-03-22T04:34:35.406Z,91.58
2023-03-22T04:36:15.804Z,91.64
2023-03-22T04:37:56.160Z,91.52
2023-03-22T04:39:36.575Z,91.52
2023-03-22T04:41:16.906Z,91.54
2023-03-22T04:42:57.350Z,91.56
2023-03-22T04:44:37.779Z,91.61
2023-03-22T04:46:18.192Z,91.65
2023-03-22T04:47:58.508Z,91.62
2023-03-22T04:49:38.877Z,91.62
2023-03-22T04:51:19.290Z,91.6
2023-03-22T04:52:59.733Z,91.59
2023-03-22T04:54:40.113Z,91.62
2023-03-22T04:56:20.611Z,91.7
2023-03-22T04:58:00.944Z,91.57
2023-03-22T04:59:41.395Z,91.46
2023-03-22T05:01:21.923Z,91.58
2023-03-22T05:03:02.251Z,91.64
2023-03-22T05:04:42.608Z,91.64
2023-03-22T05:06:23.006Z,91.59
2023-03-22T05:08:03.466Z,91.54
2023-03-22T05:09:43.817Z,91.48
2023-03-22T05:11:24.187Z,91.51
2023-03-22T05:13:04.578Z,91.57
2023-03-22T05:14:45.004Z,91.71
2023-03-22T05:16:25.380Z,91.8
2023-03-22T05:18:05.678Z,91.83
2023-03-22T05:19:46.037Z,91.92
2023-03-22T05:21:26.534Z,91.94
2023-03-22T05:23:07.009Z,92.01
2023-03-22T05:24:47.382Z,92.09
2023-03-22T05:26:27.697Z,92.17
2023-03-22T05:28:07.984Z,92.23
2023-03-22T05:29:48.426Z,92.3
2023-03-22T05:31:28.993Z,92.4
2023-03-22T05:33:09.381Z,92.35
2023-03-22T05:34:49.682Z,92.36
2023-03-22T05:36:30.050Z,92.34
2023-03-22T05:38:10.496Z,92.22
2023-03-22T05:39:50.836Z,92.24
2023-03-22T05:41:31.188Z,92.28
2023-03-22T05:43:11.599Z,92.27
2023-03-22T05:44:51.984Z,92.32
2023-03-22T05:46:32.480Z,92.21
2023-03-22T05:48:12.924Z,92.08
2023-03-22T05:49:53.256Z,92.06
2023-03-22T05:51:33.671Z,92.06
2023-03-22T05:53:14.157Z,91.98
2023-03-22T05:54:54.531Z,92.05
2023-03-22T05:56:34.922Z,92.04
2023-03-22T05:58:15.329Z,92.06
2023-03-22T05:59:55.707Z,92.12
2023-03-22T06:01:36.241Z,92.13
2023-03-22T06:03:17.090Z,92.23
2023-03-22T06:04:56.985Z,92.14
2023-03-22T06:06:37.396Z,92.16
2023-03-22T06:08:17.794Z,92.2
2023-03-22T06:09:58.253Z,92.19
2023-03-22T06:11:38.693Z,92.23
2023-03-22T06:13:19.092Z,92.18
2023-03-22T06:14:59.399Z,92.15
2023-03-22T06:16:39.955Z,92.12
2023-03-22T06:18:20.286Z,92.09
2023-03-22T06:20:00.599Z,92.1
2023-03-22T06:21:40.994Z,92.14
2023-03-22T06:23:21.477Z,92.15
2023-03-22T06:25:01.819Z,92.1
2023-03-22T06:26:42.186Z,92.02
2023-03-22T06:28:22.629Z,92.01
2023-03-22T06:30:03.054Z,91.9
2023-03-22T06:31:43.414Z,91.86
2023-03-22T06:33:23.876Z,91.74
2023-03-22T06:35:04.357Z,91.52
2023-03-22T06:36:44.801Z,91.45
2023-03-22T06:38:25.180Z,91.47
2023-03-22T06:40:05.576Z,91.47
2023-03-22T06:41:45.906Z,91.37
2023-03-22T06:43:26.290Z,91.37
2023-03-22T06:45:06.672Z,91.22
2023-03-22T06:46:47.080Z,91.12
2023-03-22T06:48:27.510Z,90.89
2023-03-22T06:50:07.770Z,90.85
2023-03-22T06:51:48.103Z,90.63
2023-03-22T06:53:28.429Z,90.33
2023-03-22T06:55:08.971Z,90.19
2023-03-22T06:56:49.236Z,89.46
2023-03-22T06:58:29.633Z,88.69
2023-03-22T07:00:10.002Z,88.41
2023-03-22T07:01:50.440Z,87.89
2023-03-22T07:03:30.859Z,87.13
2023-03-22T07:05:11.309Z,86.74
2023-03-22T07:06:51.689Z,86.47
2023-03-22T07:08:32.092Z,85.7
2023-03-22T07:10:12.612Z,84.99
2023-03-22T07:11:52.908Z,84.43
2023-03-22T07:13:33.267Z,83.99
2023-03-22T07:15:13.720Z,83.34
2023-03-22T07:16:54.192Z,83.23
2023-03-22T07:18:34.585Z,82.69
2023-03-22T07:20:15.003Z,82.01
2023-03-22T07:21:55.383Z,81.62
2023-03-22T07:23:35.862Z,80.94
2023-03-22T07:25:16.340Z,80.18
2023-03-22T07:26:56.792Z,79.26
2023-03-22T07:28:37.191Z,79.27
2023-03-22T07:30:17.660Z,78.7
2023-03-22T07:31:58.102Z,78.16
2023-03-22T07:33:38.520Z,77.83
2023-03-22T07:35:19.076Z,78.03
2023-03-22T07:36:59.298Z,77.73
2023-03-22T07:38:39.656Z,77.44
2023-03-22T07:40:20.092Z,76.51
2023-03-22T07:42:00.431Z,76.67
2023-03-22T07:43:52.767Z,76.76
2023-03-22T07:45:21.303Z,75.37
2023-03-22T07:47:01.624Z,76.26
2023-03-22T07:48:41.964Z,76.32
2023-03-22T07:50:22.415Z,76.39
2023-03-22T07:52:02.900Z,76.32
2023-03-22T07:53:43.091Z,76.65
2023-03-22T07:55:23.466Z,76.48
2023-03-22T07:57:03.879Z,76.26
2023-03-22T07:58:44.293Z,76.25
2023-03-22T08:00:24.732Z,76.42
2023-03-22T08:02:05.185Z,75.69
2023-03-22T08:03:45.500Z,76.15
2023-03-22T08:05:25.967Z,75.55
2023-03-22T08:07:06.466Z,74.65
2023-03-22T08:08:46.851Z,74.66
2023-03-22T08:10:27.241Z,74.16
2023-03-22T08:12:07.718Z,73.85
2023-03-22T08:13:48.085Z,73.38
2023-03-22T08:15:28.490Z,72.61
2023-03-22T08:17:08.919Z,73.16
2023-03-22T08:18:49.363Z,72.39
2023-03-22T08:20:29.750Z,72.27
2023-03-22T08:22:10.073Z,72.17
2023-03-22T08:23:50.535Z,72.35
2023-03-22T08:25:30.890Z,72.8
2023-03-22T08:27:11.336Z,72.37
2023-03-22T08:28:51.717Z,71.52
2023-03-22T08:30:32.144Z,71.56
2023-03-22T08:32:12.651Z,71.88
2023-03-22T08:33:52.991Z,72.14
2023-03-22T08:35:33.466Z,71.72
2023-03-22T08:37:13.869Z,71.9
2023-03-22T08:38:54.314Z,71.89
2023-03-22T08:40:34.805Z,72.57
2023-03-22T08:42:15.164Z,71.82
2023-03-22T08:43:55.582Z,73
2023-03-22T08:45:35.951Z,73.13
2023-03-22T08:47:16.353Z,72.77
2023-03-22T08:48:56.764Z,72.44
2023-03-22T08:50:37.152Z,71.64
2023-03-22T08:52:17.550Z,71.1
2023-03-22T08:53:57.966Z,72.29
2023-03-22T08:55:38.627Z,71.45
2023-03-22T08:57:18.792Z,71.56
2023-03-22T08:58:59.191Z,71.8
2023-03-22T09:00:48.555Z,71.89
2023-03-22T09:02:20.064Z,71.21
2023-03-22T09:04:00.538Z,70.79
2023-03-22T09:05:41.268Z,70.29
2023-03-22T09:07:21.321Z,70.67
2023-03-22T09:09:01.653Z,70.82
2023-03-22T09:10:42.024Z,70.81
2023-03-22T09:12:22.489Z,69.38
2023-03-22T09:14:02.968Z,69.64
2023-03-22T09:15:43.887Z,69.39
2023-03-22T09:17:23.737Z,69.02
2023-03-22T09:19:04.054Z,68.71
2023-03-22T09:20:44.393Z,69.21
2023-03-22T09:22:24.884Z,69.5
2023-03-22T09:24:05.328Z,68.53
2023-03-22T09:25:45.703Z,68.65
2023-03-22T09:27:26.105Z,68.54
2023-03-22T09:29:06.514Z,69.13
2023-03-22T09:30:47.033Z,68.19
2023-03-22T09:32:27.369Z,67.41
2023-03-22T09:34:07.763Z,67.02
2023-03-22T09:35:48.211Z,66.26
2023-03-22T09:37:28.577Z,67.07
2023-03-22T09:39:09.060Z,66.79
2023-03-22T09:40:49.376Z,66.9
2023-03-22T09:42:29.832Z,66.66
2023-03-22T09:44:10.205Z,66.37
2023-03-22T09:45:50.690Z,66.6
2023-03-22T09:47:43.922Z,66.23
2023-03-22T09:49:11.544Z,66.95
2023-03-22T09:50:51.933Z,67
2023-03-22T09:52:32.444Z,65.92
2023-03-22T09:54:12.800Z,66.92
2023-03-22T09:55:53.172Z,67.06
2023-03-22T09:57:33.506Z,66.26
2023-03-22T09:59:13.894Z,65.85
2023-03-22T10:00:54.353Z,65.71
2023-03-22T10:02:34.796Z,64.91
2023-03-22T10:04:15.110Z,64.68
2023-03-22T10:05:55.568Z,63.99
2023-03-22T10:07:35.982Z,63.63
2023-03-22T10:09:16.524Z,64.31
2023-03-22T10:10:56.879Z,63.97
2023-03-22T10:12:37.269Z,64.48
2023-03-22T10:14:17.634Z,63.65
2023-03-22T10:15:58.023Z,63.25
2023-03-22T10:17:38.432Z,63.95
2023-03-22T10:19:18.850Z,64.39
2023-03-22T10:20:59.307Z,63.02
2023-03-22T10:22:39.654Z,62.49
2023-03-22T10:24:20.143Z,62.32
2023-03-22T10:26:00.420Z,61.78
2023-03-22T10:27:40.826Z,61.38
2023-03-22T10:29:21.240Z,61.68
2023-03-22T10:31:03.210Z,60.74
2023-03-22T10:32:56.417Z,60.7
2023-03-22T10:34:22.380Z,60.04
2023-03-22T10:36:02.927Z,60.42
2023-03-22T10:37:43.215Z,60.54
2023-03-22T10:39:23.619Z,61.68
2023-03-22T10:41:04.087Z,60.63
2023-03-22T10:42:44.425Z,61.19
2023-03-22T10:44:24.850Z,60.78
2023-03-22T10:46:05.314Z,60.45
2023-03-22T10:47:45.704Z,60.83
2023-03-22T10:49:26.079Z,60.49
2023-03-22T10:51:06.556Z,59.85
2023-03-22T10:52:46.858Z,60.02
2023-03-22T10:54:27.220Z,60
2023-03-22T10:56:07.624Z,60.37
2023-03-22T10:57:47.996Z,60.68
2023-03-22T10:59:28.492Z,60.04
2023-03-22T11:01:09.104Z,62.34
2023-03-22T11:02:49.459Z,61.46
2023-03-22T11:04:29.805Z,61.01
2023-03-22T11:06:10.263Z,61.51
2023-03-22T11:07:50.737Z,60.74
2023-03-22T11:09:31.044Z,60.52
2023-03-22T11:11:11.485Z,60.01
2023-03-22T11:12:51.905Z,59.78
2023-03-22T11:14:32.370Z,59.27
2023-03-22T11:16:12.835Z,59.66
2023-03-22T11:17:53.276Z,59.82
2023-03-22T11:19:33.646Z,60.45
2023-03-22T11:21:14.006Z,59.53
2023-03-22T11:22:54.470Z,58.42
2023-03-22T11:24:34.877Z,58.02
2023-03-22T11:26:15.354Z,58.4
2023-03-22T11:27:55.759Z,57.97
2023-03-22T11:29:36.185Z,57.52
2023-03-22T11:31:16.612Z,57.03
2023-03-22T11:32:57.002Z,57.26
2023-03-22T11:34:37.419Z,56.83
2023-03-22T11:36:17.757Z,55.75
2023-03-22T11:37:58.113Z,56.78
2023-03-22T11:39:38.510Z,57.32
2023-03-22T11:41:18.855Z,57.95
2023-03-22T11:42:59.297Z,56.41
2023-03-22T11:44:39.714Z,56.45
2023-03-22T11:46:20.220Z,56.82
2023-03-22T11:48:00.717Z,55.04
2023-03-22T11:49:41.049Z,55.52
2023-03-22T11:51:21.489Z,53.72
2023-03-22T11:53:01.905Z,54.66
2023-03-22T11:54:42.550Z,54.24
2023-03-22T11:56:22.806Z,55.95
2023-03-22T11:58:03.305Z,55.76
2023-03-22T11:59:43.625Z,54.72
2023-03-22T12:01:24.049Z,54.48
2023-03-22T12:03:04.534Z,55.79
2023-03-22T12:04:44.901Z,56.7
2023-03-22T12:06:25.290Z,56.71
2023-03-22T12:08:05.634Z,56.6
2023-03-22T12:09:46.020Z,57.72
2023-03-22T12:11:26.411Z,58.13
2023-03-22T12:13:06.859Z,57.23
2023-03-22T12:14:47.364Z,57.9
2023-03-22T12:16:27.934Z,55.67
2023-03-22T12:18:08.545Z,57.23
2023-03-22T12:19:48.577Z,55.72
2023-03-22T12:21:29.021Z,55.97
2023-03-22T12:23:09.348Z,56.16
2023-03-22T12:24:49.707Z,56.39
2023-03-22T12:26:30.157Z,57.41
2023-03-22T12:28:10.557Z,56.97
2023-03-22T12:29:50.911Z,56.72
2023-03-22T12:31:31.431Z,56.03
2023-03-22T12:33:11.733Z,57.17
2023-03-22T12:34:55.140Z,57.03
2023-03-22T12:36:32.536Z,57.67
2023-03-22T12:38:12.920Z,57.56
2023-03-22T12:39:53.349Z,57.68
2023-03-22T12:41:33.846Z,58.28
2023-03-22T12:43:14.125Z,57.58
2023-03-22T12:45:04.631Z,57.91
2023-03-22T12:46:34.987Z,58.55
2023-03-22T12:48:15.428Z,58.7
2023-03-22T12:49:55.772Z,57.96
2023-03-22T12:51:36.096Z,58.51
2023-03-22T12:53:16.502Z,58
2023-03-22T12:54:56.855Z,58.35
2023-03-22T12:56:37.235Z,58.26
2023-03-22T12:58:17.615Z,57.87
2023-03-22T12:59:58.037Z,57.37
2023-03-22T13:01:38.539Z,58.04
2023-03-22T13:03:19.127Z,58.22
2023-03-22T13:04:59.360Z,58.66
2023-03-22T13:06:39.692Z,58.27
2023-03-22T13:08:20.101Z,57.48
2023-03-22T13:10:00.532Z,56.64
2023-03-22T13:11:40.953Z,56.75
2023-03-22T13:13:21.364Z,58.42
2023-03-22T13:15:01.771Z,58.5
2023-03-22T13:16:42.174Z,57.56
2023-03-22T13:18:22.485Z,57.41
2023-03-22T13:20:02.890Z,56.86
2023-03-22T13:21:43.262Z,57.57
2023-03-22T13:23:23.738Z,57.64
2023-03-22T13:25:04.136Z,57.67
2023-03-22T13:26:44.510Z,57.85
2023-03-22T13:28:24.940Z,57.32
2023-03-22T13:30:05.324Z,57.44
2023-03-22T13:31:45.730Z,57.39
2023-03-22T13:33:26.089Z,57.98
2023-03-22T13:35:06.472Z,57.72
2023-03-22T13:36:46.915Z,57.89
2023-03-22T13:38:27.443Z,56.16
2023-03-22T13:40:07.797Z,56.09
2023-03-22T13:41:48.142Z,55.17
2023-03-22T13:43:28.523Z,54.46
2023-03-22T13:45:08.910Z,54.61
2023-03-22T13:46:49.283Z,55.19
2023-03-22T13:48:29.973Z,54.79
2023-03-22T13:50:10.104Z,55.12
2023-03-22T13:51:50.471Z,55.41
2023-03-22T13:53:30.896Z,54.55
2023-03-22T13:55:11.354Z,55.63
2023-03-22T13:56:51.774Z,54.74
2023-03-22T13:58:32.188Z,54.21
2023-03-22T14:00:14.970Z,53.76
2023-03-22T14:01:52.996Z,53.67
2023-03-22T14:03:33.498Z,53.46
2023-03-22T14:05:13.828Z,54.03
2023-03-22T14:06:54.141Z,54.78
2023-03-22T14:08:34.549Z,54.62
2023-03-22T14:10:14.871Z,55.25
2023-03-22T14:11:57.014Z,54.58
2023-03-22T14:13:35.653Z,55.27
2023-03-22T14:15:16.161Z,55.35
2023-03-22T14:16:56.593Z,56.19
2023-03-22T14:18:37.037Z,57.5
2023-03-22T14:20:17.406Z,60.31
2023-03-22T14:52:05.274Z,65.28
2023-03-22T14:53:45.629Z,64.21
2023-03-22T14:55:26.085Z,66.39
2023-03-22T14:57:06.474Z,65.6
2023-03-22T14:58:46.887Z,65.04
2023-03-22T15:00:27.332Z,66.56
2023-03-22T15:02:07.774Z,66.59
2023-03-22T15:03:48.147Z,65.78
2023-03-22T15:05:28.561Z,66.58
2023-03-22T15:07:08.958Z,65
2023-03-22T15:08:49.295Z,64.45
2023-03-22T15:10:29.717Z,66.16
2023-03-22T15:12:10.049Z,65.27
2023-03-22T15:13:50.441Z,65.07
2023-03-22T15:15:30.843Z,65.94
2023-03-22T15:17:11.257Z,66.81
2023-03-22T15:18:51.581Z,65.24
2023-03-22T15:20:31.916Z,67.21
2023-03-22T15:22:12.324Z,66.44
2023-03-22T15:23:52.766Z,65.2
2023-03-22T15:25:33.219Z,64.87
2023-03-22T15:27:13.509Z,64.66
2023-03-22T15:28:53.800Z,64.18
2023-03-22T15:30:34.194Z,67.5
2023-03-22T15:32:14.575Z,66.33
2023-03-22T15:33:54.977Z,67.18
2023-03-22T15:35:35.464Z,66.81
2023-03-22T15:37:15.817Z,65.53
2023-03-22T15:38:56.233Z,63.58
2023-03-22T15:40:36.602Z,65.13
2023-03-22T15:42:17.041Z,63.15
2023-03-22T15:43:57.451Z,63.51
2023-03-22T15:45:37.974Z,63.59
2023-03-22T15:47:18.272Z,64.97
2023-03-22T15:48:58.666Z,64.28
2023-03-22T15:50:39.046Z,65.02
2023-03-22T15:52:19.455Z,63.78
2023-03-22T15:53:59.951Z,62.39
2023-03-22T15:55:40.476Z,63.69
2023-03-22T15:57:20.750Z,65.28
2023-03-22T15:59:01.188Z,63.61
2023-03-22T16:00:41.653Z,62.85
2023-03-22T16:02:22.075Z,63.97
2023-03-22T16:04:02.597Z,64.79
2023-03-22T16:05:43.086Z,64.95
2023-03-22T16:07:23.421Z,63.79
2023-03-22T16:09:04.398Z,63.19
2023-03-22T16:10:44.245Z,61.86
2023-03-22T16:12:24.697Z,62.54
2023-03-22T16:14:05.072Z,61.49
2023-03-22T16:15:45.394Z,63.18
2023-03-22T16:17:25.818Z,62.78
2023-03-22T16:19:06.151Z,61.9
2023-03-22T16:20:46.619Z,62.37
2023-03-22T16:22:26.988Z,61.88
2023-03-22T16:24:07.410Z,62.69
2023-03-22T16:25:47.780Z,62.11
2023-03-22T16:27:28.156Z,63.35
2023-03-22T16:29:08.574Z,62.46
2023-03-22T16:30:48.993Z,61.89
2023-03-22T16:32:29.377Z,61.18
2023-03-22T16:34:09.765Z,60.85
2023-03-22T16:35:50.209Z,61.72
2023-03-22T16:37:30.521Z,61.1
2023-03-22T16:39:10.909Z,61.88
2023-03-22T16:40:51.283Z,60.31
2023-03-22T16:42:33.043Z,60.55
2023-03-22T16:44:12.033Z,60.29
2023-03-22T16:45:52.484Z,60.26
2023-03-22T16:47:32.796Z,60.1
2023-03-22T16:49:13.160Z,60.14
2023-03-22T16:50:53.568Z,59.63
2023-03-22T16:52:34.000Z,60.54
2023-03-22T16:54:14.430Z,60.08
2023-03-22T16:55:54.809Z,59.86
2023-03-22T16:57:35.209Z,58.94
2023-03-22T16:59:15.701Z,59.63
2023-03-22T17:00:56.173Z,59.16
2023-03-22T17:02:39.733Z,59.03
2023-03-22T17:04:17.096Z,59.21
2023-03-22T17:05:57.518Z,59.2
2023-03-22T17:07:37.964Z,59.75
2023-03-22T17:09:18.324Z,59.71
2023-03-22T17:10:58.770Z,59.66
2023-03-22T17:12:39.132Z,60.23
2023-03-22T17:14:19.545Z,59.94
2023-03-22T17:16:00.005Z,60.31
2023-03-22T17:17:40.338Z,60.08
2023-03-22T17:19:20.756Z,60.58
2023-03-22T17:21:01.174Z,61.12
2023-03-22T17:22:41.626Z,61.17
2023-03-22T17:24:22.138Z,61.1
2023-03-22T17:26:02.544Z,61.01
2023-03-22T17:27:42.947Z,61.33
2023-03-22T17:29:23.427Z,61.85
2023-03-22T17:31:03.875Z,61.81
2023-03-22T17:32:59.328Z,62.53
2023-03-22T17:34:24.574Z,62.45
2023-03-22T17:36:04.914Z,62.48
2023-03-22T17:37:45.281Z,62.51
2023-03-22T17:39:48.307Z,63.27
2023-03-22T17:41:06.245Z,62.73
2023-03-22T17:42:46.384Z,61.89
2023-03-22T17:44:26.794Z,62.58
2023-03-22T17:46:49.746Z,61.39
2023-03-22T17:47:49.322Z,61.74
2023-03-22T17:49:27.845Z,61.39
2023-03-22T17:51:08.321Z,61.28
2023-03-22T17:52:49.059Z,60.75
2023-03-22T17:56:44.110Z,61.02
2023-03-22T17:58:15.186Z,60.7
2023-03-22T17:59:30.102Z,60.76
2023-03-22T18:01:10.560Z,60.13
2023-03-22T18:02:51.034Z,60.13
2023-03-22T18:04:31.306Z,60.29
2023-03-22T18:06:11.653Z,60.44
2023-03-22T18:08:10.369Z,60.71
2023-03-22T18:09:32.358Z,60.94
2023-03-22T18:11:12.688Z,61.41
2023-03-22T18:12:53.077Z,61.33
2023-03-22T18:16:13.957Z,62.23
2023-03-22T18:17:54.174Z,61.12
2023-03-22T18:19:34.668Z,61.55
2023-03-22T18:21:15.059Z,61.65
2023-03-22T18:22:55.497Z,61.64
2023-03-22T18:24:35.862Z,61.35
2023-03-22T18:26:25.679Z,61.13
2023-03-22T18:27:56.671Z,61.38
2023-03-22T18:29:36.985Z,61.56
2023-03-22T18:31:17.365Z,61.81
2023-03-22T18:33:05.882Z,62.04
2023-03-22T18:34:38.137Z,61.59
2023-03-22T18:36:18.595Z,62.32
2023-03-22T18:37:58.949Z,62.03
2023-03-22T18:40:22.857Z,62.15
2023-03-22T18:41:34.732Z,62.19
2023-03-22T18:43:00.153Z,62.2
2023-03-22T18:44:40.497Z,62.44
2023-03-22T18:46:21.024Z,62.85
2023-03-22T18:48:01.266Z,62.75
2023-03-22T18:49:41.650Z,63.04
2023-03-22T18:51:22.076Z,63.29
2023-03-22T18:53:17.836Z,63.47
2023-03-22T18:54:43.926Z,63.8
2023-03-22T18:56:23.224Z,64.45
2023-03-22T18:58:03.628Z,63.69
2023-03-22T18:59:44.035Z,63.71
2023-03-22T19:01:24.704Z,64
2023-03-22T19:03:04.782Z,64.36
2023-03-22T19:04:45.114Z,64.46
2023-03-22T19:06:25.520Z,64.12
2023-03-22T19:09:46.372Z,64.78
2023-03-22T19:11:26.820Z,64.75
2023-03-22T19:13:07.191Z,64.48
2023-03-22T19:16:28.071Z,64.69
2023-03-22T19:18:08.362Z,64.72
2023-03-22T19:19:48.723Z,64.88
2023-03-22T19:21:32.228Z,65.44
2023-03-22T19:23:09.446Z,65.4
2023-03-22T19:24:49.860Z,65.42
2023-03-22T19:26:30.550Z,64.97
2023-03-22T19:28:10.651Z,65.39
2023-03-22T19:29:51.015Z,65.83
2023-03-22T19:31:31.437Z,65.78
2023-03-22T19:33:30.805Z,65.89
2023-03-22T19:34:53.664Z,65.86
2023-03-22T19:36:32.564Z,66.16
2023-03-22T19:38:12.944Z,65.43
2023-03-22T19:40:38.730Z,65.78
2023-03-22T19:43:14.124Z,66.02
2023-03-22T19:44:55.208Z,65.93
2023-03-22T19:46:34.822Z,65.81
2023-03-22T19:48:15.282Z,65.8
2023-03-22T19:49:55.650Z,65.15
2023-03-22T19:51:35.938Z,65.19
2023-03-22T19:53:51.754Z,64.88
2023-03-22T19:54:56.696Z,65.23
2023-03-22T19:56:37.140Z,65.47
2023-03-22T19:58:17.509Z,65.42
2023-03-22T20:00:36.407Z,65.62
2023-03-22T20:01:38.275Z,64.89
2023-03-22T20:03:18.722Z,65.51
2023-03-22T20:05:05.152Z,65.44
2023-03-22T20:06:39.514Z,65.67
2023-03-22T20:08:19.847Z,65.94
2023-03-22T20:10:00.352Z,65.14
2023-03-22T20:11:43.695Z,65.11
2023-03-22T20:13:21.134Z,65.03
2023-03-22T20:15:01.485Z,65.25
2023-03-22T20:16:41.876Z,65.19
2023-03-22T20:18:22.185Z,65.36
2023-03-22T20:20:03.752Z,65.24
2023-03-22T20:21:42.825Z,65.17
2023-03-22T20:23:23.239Z,65.29
2023-03-22T20:25:03.677Z,65.04
2023-03-22T20:26:44.104Z,65.37
2023-03-22T20:28:24.417Z,65.21
2023-03-22T20:30:04.822Z,65.23
2023-03-22T20:31:45.153Z,65.59
2023-03-22T20:33:25.585Z,65.46
2023-03-22T20:35:05.957Z,65.51
2023-03-22T20:36:46.257Z,65.28
2023-03-22T20:38:26.687Z,65.2
2023-03-22T20:40:06.993Z,65.3
2023-03-22T20:41:47.435Z,65.34
2023-03-22T20:43:27.814Z,65.42
2023-03-22T20:45:08.225Z,65.51
2023-03-22T20:46:48.583Z,65.35
2023-03-22T20:48:32.037Z,65.8
2023-03-22T20:50:09.373Z,65.73
2023-03-22T20:51:49.788Z,66.03
2023-03-22T20:53:30.216Z,65.88
2023-03-22T20:55:10.627Z,65.59
2023-03-22T20:56:51.059Z,65.73
2023-03-22T20:58:31.466Z,65.62
2023-03-22T21:00:11.959Z,65.81
2023-03-22T21:01:52.331Z,65.69
2023-03-22T21:03:32.808Z,65.98
2023-03-22T21:05:13.149Z,65.38
2023-03-22T21:06:53.526Z,65.55
2023-03-22T21:08:33.889Z,65.68
2023-03-22T21:10:14.353Z,65.45
2023-03-22T21:11:54.721Z,65.46
2023-03-22T21:13:35.167Z,65.6
2023-03-22T21:15:15.633Z,65.38
2023-03-22T21:16:56.131Z,65.2
2023-03-22T21:18:36.478Z,64.57
2023-03-22T21:20:27.157Z,64.3
2023-03-22T21:22:00.148Z,64.16
2023-03-22T21:23:37.745Z,64.36
2023-03-22T21:25:18.162Z,64.28
2023-03-22T21:26:58.566Z,64.29
2023-03-22T21:28:38.983Z,64.08
2023-03-22T21:30:19.412Z,63.93
2023-03-22T21:31:59.763Z,64.09
2023-03-22T21:33:40.162Z,64.1
2023-03-22T21:35:20.583Z,63.9
2023-03-22T21:37:00.927Z,64.11
2023-03-22T21:38:41.380Z,63.79
2023-03-22T21:40:21.767Z,63.7
2023-03-22T21:42:02.223Z,63.7
2023-03-22T21:43:42.614Z,64.03
2023-03-22T21:45:23.022Z,63.89
2023-03-22T21:47:03.391Z,63.97
2023-03-22T21:48:43.757Z,63.91
2023-03-22T21:50:24.138Z,63.95
2023-03-22T21:52:04.504Z,63.7
2023-03-22T21:53:44.899Z,63.96
2023-03-22T21:55:25.276Z,64.08
2023-03-22T21:57:05.623Z,63.89
2023-03-22T21:58:45.968Z,63.72
2023-03-22T22:00:26.362Z,63.82
2023-03-22T22:02:06.836Z,64.01
2023-03-22T22:03:47.253Z,63.87
2023-03-22T22:05:27.640Z,63.6
2023-03-22T22:07:08.022Z,63.67
2023-03-22T22:08:48.463Z,63.94
2023-03-22T22:10:28.784Z,63.66
2023-03-22T22:12:09.233Z,63.25
2023-03-22T22:13:49.585Z,63.93
2023-03-22T22:15:29.983Z,63.5